createdAt,value
2023-04-08T00:00:46.465Z,13.96
2023-04-08T00:03:13.127Z,13.62
2023-04-08T00:05:39.812Z,13.36
2023-04-08T00:08:06.592Z,13.66
2023-04-08T00:10:33.584Z,13.80
2023-04-08T00:13:00.933Z,13.51
2023-04-08T00:15:27.546Z,13.18
2023-04-08T00:17:54.470Z,13.27
2023-04-08T00:20:24.040Z,13.57
2023-04-08T00:22:50.920Z,13.25
2023-04-08T00:25:17.538Z,13.39
2023-04-08T00:27:44.141Z,13.63
2023-04-08T00:30:11.587Z,13.61
2023-04-08T00:32:38.518Z,13.39
2023-04-08T00:35:05.385Z,13.28
2023-04-08T00:37:31.983Z,13.44
2023-04-08T00:39:58.819Z,13.70
2023-04-08T00:42:25.323Z,13.63
2023-04-08T00:44:51.973Z,13.68
2023-04-08T00:47:18.831Z,14.12
2023-04-08T00:49:45.849Z,13.80
2023-04-08T00:52:12.476Z,13.33
2023-04-08T00:54:39.618Z,13.72
2023-04-08T00:57:06.788Z,14.01
2023-04-08T00:59:35.903Z,13.87
2023-04-08T01:02:23.980Z,13.88
2023-04-08T01:05:10.498Z,13.08
2023-04-08T01:07:41.274Z,12.71
2023-04-08T01:10:15.545Z,12.86
2023-04-08T01:12:48.298Z,12.83
2023-04-08T01:15:15.897Z,12.11
2023-04-08T01:17:44.553Z,12.73
2023-04-08T01:20:13.285Z,12.98
2023-04-08T01:23:04.366Z,12.72
2023-04-08T01:25:34.282Z,13.06
2023-04-08T01:28:05.231Z,12.79
2023-04-08T01:30:33.497Z,12.80
2023-04-08T01:33:02.443Z,13.28
2023-04-08T01:35:30.681Z,13.15
2023-04-08T01:37:58.157Z,13.11
2023-04-08T01:40:25.058Z,13.24
2023-04-08T01:42:55.744Z,13.31
2023-04-08T01:45:23.945Z,13.23
2023-04-08T01:47:52.620Z,12.54
2023-04-08T01:50:20.774Z,12.16
2023-04-08T01:52:49.332Z,12.22
2023-04-08T01:55:17.103Z,12.11
2023-04-08T01:57:48.843Z,12.57
2023-04-08T02:00:18.383Z,12.59
2023-04-08T02:02:49.500Z,12.17
2023-04-08T02:05:16.518Z,12.53
2023-04-08T02:07:43.169Z,12.75
2023-04-08T02:10:10.223Z,12.66
2023-04-08T02:12:37.258Z,12.84
2023-04-08T02:15:10.466Z,12.81
2023-04-08T02:17:50.415Z,12.59
2023-04-08T02:20:25.217Z,12.78
2023-04-08T02:23:07.526Z,12.45
2023-04-08T02:25:37.634Z,12.23
2023-04-08T02:28:11.222Z,11.79
2023-04-08T02:30:42.251Z,11.69
2023-04-08T02:33:09.477Z,11.95
2023-04-08T02:35:36.458Z,11.94
2023-04-08T02:38:03.054Z,12.48
2023-04-08T02:40:32.976Z,12.15
2023-04-08T02:43:00.360Z,12.12
2023-04-08T02:45:31.365Z,12.17
2023-04-08T02:48:00.222Z,11.95
2023-04-08T02:50:27.247Z,12.08
2023-04-08T02:52:53.785Z,11.87
2023-04-08T02:55:20.415Z,12.09
2023-04-08T02:57:47.803Z,12.07
2023-04-08T03:00:15.295Z,12.40
2023-04-08T03:02:42.107Z,12.01
2023-04-08T03:05:09.632Z,11.87
2023-04-08T03:07:36.790Z,11.88
2023-04-08T03:10:03.631Z,11.70
2023-04-08T03:12:31.454Z,11.75
2023-04-08T03:14:57.996Z,12.06
2023-04-08T03:17:24.763Z,11.44
2023-04-08T03:19:51.291Z,11.19
2023-04-08T03:22:17.891Z,11.60
2023-04-08T03:24:44.434Z,11.82
2023-04-08T03:27:12.517Z,12.02
2023-04-08T03:29:39.028Z,11.85
2023-04-08T03:32:05.818Z,11.84
2023-04-08T03:34:34.728Z,11.84
2023-04-08T03:37:01.747Z,11.77
2023-04-08T03:39:28.383Z,11.99
2023-04-08T03:41:55.126Z,12.00
2023-04-08T03:44:21.669Z,12.10
2023-04-08T03:46:48.228Z,12.18
2023-04-08T03:49:14.741Z,12.09
2023-04-08T03:51:41.547Z,11.99
2023-04-08T03:54:08.649Z,11.94
2023-04-08T03:56:35.305Z,11.81
2023-04-08T03:59:01.815Z,11.29
2023-04-08T04:01:29.028Z,10.97
2023-04-08T04:03:55.884Z,11.49
2023-04-08T04:06:22.563Z,11.73
2023-04-08T04:08:50.348Z,11.90
2023-04-08T04:11:17.194Z,11.89
2023-04-08T04:13:43.753Z,12.26
2023-04-08T04:16:10.323Z,12.17
2023-04-08T04:18:36.961Z,12.07
2023-04-08T04:21:07.217Z,12.22
2023-04-08T04:23:34.171Z,12.21
2023-04-08T04:26:00.647Z,12.07
2023-04-08T04:28:27.243Z,11.95
2023-04-08T04:30:55.908Z,11.78
2023-04-08T04:33:23.123Z,11.82
2023-04-08T04:35:49.724Z,12.00
2023-04-08T04:38:16.429Z,11.84
2023-04-08T04:40:44.161Z,11.61
2023-04-08T04:43:11.137Z,11.66
2023-04-08T04:45:37.643Z,11.58
2023-04-08T04:48:04.334Z,11.70
2023-04-08T04:50:30.871Z,11.57
2023-04-08T04:52:57.567Z,11.45
2023-04-08T04:55:24.198Z,11.63
2023-04-08T04:57:50.808Z,11.21
2023-04-08T05:00:17.480Z,11.04
2023-04-08T05:02:44.411Z,11.40
2023-04-08T05:05:11.202Z,11.77
2023-04-08T05:07:38.764Z,11.82
2023-04-08T05:10:06.045Z,11.97
2023-04-08T05:12:32.935Z,12.07
2023-04-08T05:14:59.647Z,12.15
2023-04-08T05:17:26.504Z,12.29
2023-04-08T05:19:53.537Z,12.13
2023-04-08T05:22:20.158Z,12.25
2023-04-08T05:24:46.758Z,11.95
2023-04-08T05:27:13.446Z,12.04
2023-04-08T05:29:40.011Z,12.10
2023-04-08T05:32:06.575Z,12.19
2023-04-08T05:34:33.182Z,12.27
2023-04-08T05:36:59.745Z,12.30
2023-04-08T05:39:26.294Z,12.17
2023-04-08T05:41:52.919Z,12.14
2023-04-08T05:44:19.497Z,12.00
2023-04-08T05:46:46.133Z,12.30
2023-04-08T05:49:12.731Z,12.16
2023-04-08T05:51:39.682Z,12.37
2023-04-08T05:54:06.302Z,12.51
2023-04-08T05:56:32.869Z,12.39
2023-04-08T05:58:59.377Z,12.48
2023-04-08T06:01:26.206Z,12.68
2023-04-08T06:03:53.096Z,12.45
2023-04-08T06:06:19.741Z,12.50
2023-04-08T06:08:47.150Z,12.79
2023-04-08T06:11:14.130Z,12.89
2023-04-08T06:13:40.683Z,13.00
2023-04-08T06:16:12.426Z,13.18
2023-04-08T06:18:39.142Z,13.36
2023-04-08T06:21:06.266Z,13.37
2023-04-08T06:23:32.918Z,13.05
2023-04-08T06:25:59.420Z,13.31
2023-04-08T06:28:26.274Z,13.38
2023-04-08T06:30:52.785Z,13.43
2023-04-08T06:33:19.397Z,13.34
2023-04-08T06:35:46.042Z,13.38
2023-04-08T06:38:12.623Z,13.71
2023-04-08T06:40:40.425Z,13.69
2023-04-08T06:43:09.825Z,13.66
2023-04-08T06:45:39.657Z,13.69
2023-04-08T06:48:08.868Z,13.82
2023-04-08T06:50:35.890Z,13.84
2023-04-08T06:53:02.482Z,14.17
2023-04-08T06:55:29.044Z,14.18
2023-04-08T06:57:55.647Z,14.08
2023-04-08T07:00:22.181Z,13.89
2023-04-08T07:02:48.882Z,13.94
2023-04-08T07:05:15.561Z,14.05
2023-04-08T07:07:42.064Z,14.12
2023-04-08T07:10:11.112Z,14.57
2023-04-08T07:12:37.869Z,14.64
2023-04-08T07:15:04.833Z,14.65
2023-04-08T07:17:32.452Z,14.50
2023-04-08T07:19:59.391Z,14.65
2023-04-08T07:22:26.133Z,14.81
2023-04-08T07:24:52.783Z,14.91
2023-04-08T07:27:19.357Z,15.18
2023-04-08T07:29:46.099Z,15.10
2023-04-08T07:32:12.601Z,14.79
2023-04-08T07:34:39.159Z,14.85
2023-04-08T07:37:05.719Z,14.97
2023-04-08T07:39:32.365Z,14.80
2023-04-08T07:41:58.838Z,15.06
2023-04-08T07:44:25.610Z,14.93
2023-04-08T07:46:52.191Z,15.31
2023-04-08T07:49:18.827Z,15.10
2023-04-08T07:51:45.407Z,15.23
2023-04-08T07:54:12.523Z,15.30
2023-04-08T07:56:40.325Z,15.12
2023-04-08T07:59:07.275Z,15.31
2023-04-08T08:01:35.682Z,15.41
2023-04-08T08:04:03.343Z,15.84
2023-04-08T08:06:33.419Z,16.04
2023-04-08T08:09:00.457Z,16.04
2023-04-08T08:11:29.916Z,15.67
2023-04-08T08:13:56.940Z,15.59
2023-04-08T08:16:27.071Z,15.40
2023-04-08T08:18:53.809Z,15.55
2023-04-08T08:21:20.429Z,15.70
2023-04-08T08:23:47.166Z,15.75
2023-04-08T08:26:13.697Z,15.55
2023-04-08T08:28:40.257Z,15.69
2023-04-08T08:31:06.964Z,15.98
2023-04-08T08:33:33.968Z,16.16
2023-04-08T08:36:00.759Z,16.40
2023-04-08T08:38:27.691Z,16.64
2023-04-08T08:40:58.636Z,16.73
2023-04-08T08:43:26.383Z,16.66
2023-04-08T08:45:53.639Z,16.35
2023-04-08T08:48:20.698Z,16.42
2023-04-08T08:50:47.405Z,16.47
2023-04-08T08:53:14.005Z,16.48
2023-04-08T08:56:05.632Z,16.80
2023-04-08T08:58:28.322Z,16.99
2023-04-08T09:00:55.323Z,17.01
2023-04-08T09:03:30.252Z,17.19
2023-04-08T09:06:03.988Z,17.14
2023-04-08T09:08:32.910Z,17.08
2023-04-08T09:11:18.436Z,16.47
2023-04-08T09:13:46.405Z,16.27
2023-04-08T09:16:16.571Z,16.24
2023-04-08T09:18:45.801Z,16.25
2023-04-08T09:21:14.321Z,16.52
2023-04-08T09:23:43.945Z,16.76
2023-04-08T09:26:22.138Z,16.61
2023-04-08T09:29:14.778Z,16.58
2023-04-08T09:31:59.419Z,16.60
2023-04-08T09:34:27.671Z,16.70
2023-04-08T09:36:55.580Z,16.82
2023-04-08T09:39:22.830Z,16.82
2023-04-08T09:41:50.990Z,16.70
2023-04-08T09:44:20.522Z,16.81
2023-04-08T09:46:50.196Z,16.88
2023-04-08T09:49:26.892Z,16.54
2023-04-08T09:52:04.568Z,16.33
2023-04-08T09:54:38.668Z,16.38
2023-04-08T09:57:11.437Z,16.51
2023-04-08T09:59:42.991Z,16.36
2023-04-08T10:02:11.720Z,16.42
2023-04-08T10:04:43.931Z,16.62
2023-04-08T10:07:10.659Z,16.50
2023-04-08T10:09:38.585Z,16.64
2023-04-08T10:12:05.569Z,16.79
2023-04-08T10:14:32.512Z,16.86
2023-04-08T10:17:25.178Z,16.66
2023-04-08T10:19:51.956Z,16.85
2023-04-08T10:22:33.767Z,16.87
2023-04-08T10:25:15.673Z,16.99
2023-04-08T10:27:43.298Z,16.93
2023-04-08T10:30:31.583Z,17.04
2023-04-08T10:33:03.249Z,17.09
2023-04-08T10:35:36.950Z,17.30
2023-04-08T10:38:03.832Z,17.27
2023-04-08T10:40:38.900Z,17.26
2023-04-08T10:43:05.999Z,17.23
2023-04-08T10:45:33.057Z,17.22
2023-04-08T10:48:19.911Z,17.23
2023-04-08T10:50:57.842Z,17.19
2023-04-08T10:53:35.558Z,17.15
2023-04-08T10:56:14.887Z,17.20
2023-04-08T10:58:52.787Z,17.24
2023-04-08T11:01:20.006Z,17.15
2023-04-08T11:03:46.891Z,17.15
2023-04-08T11:06:13.548Z,17.37
2023-04-08T11:08:40.371Z,17.42
2023-04-08T11:11:11.560Z,17.33
2023-04-08T11:13:52.835Z,17.56
2023-04-08T11:16:23.985Z,17.73
2023-04-08T11:18:51.180Z,17.70
2023-04-08T11:21:18.072Z,17.81
2023-04-08T11:23:44.725Z,17.95
2023-04-08T11:26:11.770Z,18.07
2023-04-08T11:28:38.612Z,18.24
2023-04-08T11:31:05.914Z,18.23
2023-04-08T11:33:35.064Z,18.06
2023-04-08T11:36:04.460Z,18.25
2023-04-08T11:38:31.207Z,18.44
2023-04-08T11:40:59.819Z,18.53
2023-04-08T11:43:27.414Z,18.56
2023-04-08T11:45:53.986Z,18.18
2023-04-08T11:48:21.103Z,18.46
2023-04-08T11:50:47.760Z,18.57
2023-04-08T11:53:41.319Z,18.89
2023-04-08T11:56:22.279Z,18.63
2023-04-08T11:58:50.122Z,18.60
2023-04-08T12:01:16.707Z,18.72
2023-04-08T12:03:57.309Z,18.82
2023-04-08T12:06:24.615Z,18.90
2023-04-08T12:08:51.185Z,18.66
2023-04-08T12:11:20.043Z,18.20
2023-04-08T12:13:46.932Z,18.48
2023-04-08T12:16:14.112Z,18.89
2023-04-08T12:18:40.901Z,18.70
2023-04-08T12:21:08.578Z,18.85
2023-04-08T12:23:35.403Z,18.61
2023-04-08T12:26:04.305Z,18.39
2023-04-08T12:28:31.159Z,18.46
2023-04-08T12:30:57.880Z,18.34
2023-04-08T12:33:24.644Z,18.40
2023-04-08T12:35:52.181Z,18.37
2023-04-08T12:38:18.699Z,18.30
2023-04-08T12:40:45.699Z,18.36
2023-04-08T12:43:12.563Z,18.47
2023-04-08T12:45:39.308Z,18.52
2023-04-08T12:48:06.354Z,18.54
2023-04-08T12:50:33.104Z,18.63
2023-04-08T12:52:59.708Z,18.81
2023-04-08T12:55:26.551Z,18.88
2023-04-08T12:57:53.180Z,18.66
2023-04-08T13:00:19.819Z,18.80
2023-04-08T13:02:46.726Z,18.66
2023-04-08T13:05:13.884Z,18.98
2023-04-08T13:07:40.470Z,19.13
2023-04-08T13:10:08.485Z,19.34
2023-04-08T13:12:35.262Z,19.58
2023-04-08T13:15:01.887Z,19.44
2023-04-08T13:17:28.906Z,19.26
2023-04-08T13:19:55.568Z,19.34
2023-04-08T13:22:22.116Z,19.50
2023-04-08T13:24:48.773Z,19.35
2023-04-08T13:27:15.322Z,19.15
2023-04-08T13:29:41.873Z,19.43
2023-04-08T13:32:08.439Z,19.61
2023-04-08T13:34:35.202Z,19.39
2023-04-08T13:37:02.102Z,19.29
2023-04-08T13:39:28.719Z,19.14
2023-04-08T13:41:56.333Z,19.11
2023-04-08T13:44:23.177Z,19.16
2023-04-08T13:46:49.693Z,18.90
2023-04-08T13:49:16.225Z,19.17
2023-04-08T13:51:42.687Z,19.36
2023-04-08T13:54:09.281Z,19.44
2023-04-08T13:56:35.968Z,19.25
2023-04-08T13:59:02.873Z,19.18
2023-04-08T14:01:29.811Z,19.13
2023-04-08T14:03:56.806Z,19.22
2023-04-08T14:06:23.435Z,19.10
2023-04-08T14:08:50.802Z,19.02
2023-04-08T14:11:17.565Z,19.05
2023-04-08T14:13:44.120Z,19.37
2023-04-08T14:16:10.725Z,19.42
2023-04-08T14:18:37.578Z,18.99
2023-04-08T14:21:05.323Z,19.15
2023-04-08T14:23:31.900Z,19.65
2023-04-08T14:25:58.466Z,19.53
2023-04-08T14:28:25.157Z,19.53
2023-04-08T14:30:52.099Z,19.50
2023-04-08T14:33:19.121Z,19.66
2023-04-08T14:35:45.805Z,19.79
2023-04-08T14:38:12.481Z,19.70
2023-04-08T14:40:38.992Z,19.38
2023-04-08T14:43:05.528Z,19.42
2023-04-08T14:45:33.012Z,19.31
2023-04-08T14:47:59.753Z,19.36
2023-04-08T14:50:26.508Z,19.73
2023-04-08T14:52:53.133Z,19.86
2023-04-08T14:55:22.473Z,19.85
2023-04-08T14:57:49.142Z,19.90
2023-04-08T15:00:16.021Z,19.89
2023-04-08T15:02:42.722Z,19.82
2023-04-08T15:05:09.476Z,19.77
2023-04-08T15:07:36.348Z,19.66
2023-04-08T15:10:02.961Z,19.61
2023-04-08T15:12:29.563Z,19.53
2023-04-08T15:14:56.259Z,19.68
2023-04-08T15:17:22.867Z,19.72
2023-04-08T15:19:49.547Z,19.83
2023-04-08T15:22:16.150Z,19.74
2023-04-08T15:24:42.743Z,19.68
2023-04-08T15:27:09.477Z,19.71
2023-04-08T15:29:36.100Z,19.95
2023-04-08T15:32:02.802Z,20.08
2023-04-08T15:34:29.858Z,20.00
2023-04-08T15:36:57.142Z,20.06
2023-04-08T15:39:23.827Z,20.08
2023-04-08T15:41:50.423Z,19.93
2023-04-08T15:44:17.356Z,19.91
2023-04-08T15:46:43.959Z,19.84
2023-04-08T15:49:10.457Z,19.73
2023-04-08T15:51:37.075Z,19.76
2023-04-08T15:54:03.954Z,19.71
2023-04-08T15:56:31.045Z,19.79
2023-04-08T15:58:57.546Z,19.94
2023-04-08T16:01:24.292Z,20.10
2023-04-08T16:03:50.982Z,19.93
2023-04-08T16:06:17.600Z,20.05
2023-04-08T16:08:46.747Z,20.26
2023-04-08T16:11:13.299Z,20.10
2023-04-08T16:13:42.187Z,19.97
2023-04-08T16:16:08.910Z,19.98
2023-04-08T16:18:35.719Z,19.80
2023-04-08T16:21:05.469Z,19.98
2023-04-08T16:23:31.981Z,19.89
2023-04-08T16:25:58.586Z,19.78
2023-04-08T16:28:27.492Z,19.95
2023-04-08T16:30:54.129Z,19.99
2023-04-08T16:33:23.906Z,19.94
2023-04-08T16:35:50.624Z,20.16
2023-04-08T16:38:17.206Z,19.95
2023-04-08T16:40:43.869Z,19.84
2023-04-08T16:43:10.377Z,19.85
2023-04-08T16:45:37.754Z,20.03
2023-04-08T16:48:04.491Z,20.06
2023-04-08T16:50:31.146Z,20.08
2023-04-08T16:52:57.681Z,19.87
2023-04-08T16:55:24.301Z,19.60
2023-04-08T16:57:50.867Z,19.58
2023-04-08T17:04:51.112Z,19.82
2023-04-08T17:07:18.151Z,20.05
2023-04-08T17:09:49.345Z,19.94
2023-04-08T17:12:16.288Z,19.93
2023-04-08T17:14:42.885Z,20.01
2023-04-08T17:17:09.428Z,20.12
2023-04-08T17:19:36.470Z,19.73
2023-04-08T17:22:03.102Z,19.49
2023-04-08T17:24:29.684Z,19.60
2023-04-08T17:26:59.932Z,19.76
2023-04-08T17:29:26.468Z,19.76
2023-04-08T17:31:53.078Z,19.61
2023-04-08T17:34:19.722Z,19.53
2023-04-08T17:36:46.211Z,19.58
2023-04-08T17:39:12.743Z,19.60
2023-04-08T17:41:41.292Z,19.62
2023-04-08T17:44:08.775Z,19.74
2023-04-08T17:46:35.324Z,19.74
2023-04-08T17:49:01.914Z,19.61
2023-04-08T17:51:30.164Z,19.68
2023-04-08T17:53:56.800Z,19.59
2023-04-08T17:56:23.553Z,19.59
2023-04-08T17:58:50.228Z,19.63
2023-04-08T18:01:17.069Z,19.68
2023-04-08T18:03:43.743Z,19.65
2023-04-08T18:06:10.402Z,19.64
2023-04-08T18:08:37.006Z,19.69
2023-04-08T18:11:06.500Z,19.70
2023-04-08T18:13:33.495Z,19.74
2023-04-08T18:16:00.097Z,19.69
2023-04-08T18:18:26.736Z,19.69
2023-04-08T18:20:53.229Z,19.65
2023-04-08T18:23:19.750Z,19.62
2023-04-08T18:25:47.175Z,19.53
2023-04-08T18:28:13.745Z,19.26
2023-04-08T18:30:40.450Z,19.35
2023-04-08T18:33:07.550Z,19.44
2023-04-08T18:35:34.177Z,19.29
2023-04-08T18:38:00.723Z,19.35
2023-04-08T18:40:27.309Z,19.42
2023-04-08T18:42:53.969Z,19.28
2023-04-08T18:45:20.485Z,19.25
2023-04-08T18:47:47.104Z,19.06
2023-04-08T18:50:13.624Z,18.96
2023-04-08T18:52:40.176Z,19.14
2023-04-08T18:55:06.703Z,19.02
2023-04-08T18:57:34.401Z,19.02
2023-04-08T19:00:01.129Z,19.11
2023-04-08T19:02:27.838Z,19.06
2023-04-08T19:04:55.701Z,19.10
2023-04-08T19:07:23.214Z,19.08
2023-04-08T19:09:49.785Z,18.99
2023-04-08T19:12:16.387Z,19.07
2023-04-08T19:14:42.989Z,19.02
2023-04-08T19:17:10.889Z,19.10
2023-04-08T19:19:37.423Z,19.05
2023-04-08T19:22:05.650Z,18.91
2023-04-08T19:24:32.905Z,18.89
2023-04-08T19:26:59.955Z,18.87
2023-04-08T19:29:29.585Z,18.90
2023-04-08T19:31:57.378Z,18.80
2023-04-08T19:34:23.903Z,19.05
2023-04-08T19:36:50.489Z,19.19
2023-04-08T19:39:17.152Z,19.25
2023-04-08T19:41:43.728Z,19.27
2023-04-08T19:44:10.321Z,19.28
2023-04-08T19:46:37.274Z,19.07
2023-04-08T19:49:04.358Z,19.03
2023-04-08T19:51:32.621Z,19.19
2023-04-08T19:53:59.182Z,19.25
2023-04-08T19:58:52.559Z,19.06
2023-04-08T20:01:19.312Z,19.16
2023-04-08T20:03:50.542Z,19.27
2023-04-08T20:06:17.798Z,19.25
2023-04-08T20:08:44.825Z,18.99
2023-04-08T20:11:11.557Z,18.89
2023-04-08T20:13:38.186Z,19.01
2023-04-08T20:16:04.928Z,19.02
2023-04-08T20:18:32.154Z,19.33
2023-04-08T20:21:00.125Z,19.14
2023-04-08T20:23:27.230Z,19.13
2023-04-08T20:25:53.860Z,19.15
2023-04-08T20:28:20.958Z,19.17
2023-04-08T20:30:48.013Z,19.21
2023-04-08T20:33:14.536Z,19.29
2023-04-08T20:35:41.281Z,19.22
2023-04-08T20:38:07.809Z,19.10
2023-04-08T20:40:34.377Z,19.05
2023-04-08T20:43:01.012Z,19.05
2023-04-08T20:45:28.165Z,18.83
2023-04-08T20:47:55.554Z,18.73
2023-04-08T20:50:22.225Z,18.49
2023-04-08T20:52:48.746Z,18.59
2023-04-08T20:55:15.421Z,18.60
2023-04-08T20:57:42.000Z,18.61
2023-04-08T21:00:09.472Z,18.66
2023-04-08T21:02:36.324Z,18.48
2023-04-08T21:05:03.376Z,18.49
2023-04-08T21:07:30.353Z,18.37
2023-04-08T21:09:57.012Z,18.37
2023-04-08T21:12:23.504Z,18.38
2023-04-08T21:14:50.836Z,18.44
2023-04-08T21:17:17.507Z,18.28
2023-04-08T21:19:44.104Z,18.18
2023-04-08T21:22:10.610Z,18.51
2023-04-08T21:24:37.847Z,18.59
2023-04-08T21:27:04.483Z,18.69
2023-04-08T21:29:31.052Z,18.45
2023-04-08T21:31:57.715Z,18.72
2023-04-08T21:34:24.310Z,18.71
2023-04-08T21:36:51.034Z,18.65
2023-04-08T21:39:17.932Z,18.41
2023-04-08T21:41:44.750Z,18.52
2023-04-08T21:44:11.441Z,18.56
2023-04-08T21:46:38.148Z,18.61
2023-04-08T21:49:04.753Z,18.62
2023-04-08T21:51:31.330Z,18.59
2023-04-08T21:53:57.891Z,18.73
2023-04-08T21:56:24.550Z,18.76
2023-04-08T21:58:51.289Z,18.79
2023-04-08T22:01:18.096Z,18.80
2023-04-08T22:03:45.639Z,18.78
2023-04-08T22:06:16.682Z,18.59
2023-04-08T22:08:50.513Z,18.66
2023-04-08T22:11:17.468Z,18.52
2023-04-08T22:13:44.037Z,18.48
2023-04-08T22:16:11.350Z,18.61
2023-04-08T22:18:38.047Z,18.61
2023-04-08T22:21:04.616Z,18.72
2023-04-08T22:23:31.338Z,18.47
2023-04-08T22:25:57.832Z,18.27
2023-04-08T22:28:24.504Z,18.28
2023-04-08T22:30:51.404Z,18.26
2023-04-08T22:33:17.952Z,18.31
2023-04-08T22:35:44.479Z,18.32
2023-04-08T22:38:11.541Z,18.27
2023-04-08T22:40:38.044Z,18.22
2023-04-08T22:43:04.676Z,17.90
2023-04-08T22:45:31.275Z,18.03
2023-04-08T22:47:58.042Z,17.95
2023-04-08T22:50:24.683Z,18.03
2023-04-08T22:52:51.276Z,18.00
2023-04-08T22:55:17.875Z,18.05
2023-04-08T22:57:44.411Z,17.98
2023-04-08T23:00:12.175Z,18.18
2023-04-08T23:02:38.801Z,18.29
2023-04-08T23:05:06.040Z,18.31
2023-04-08T23:07:32.644Z,18.31
2023-04-08T23:09:59.177Z,18.33
2023-04-08T23:12:25.740Z,17.98
2023-04-08T23:14:52.253Z,17.80
2023-04-08T23:17:18.812Z,17.72
2023-04-08T23:19:45.341Z,17.52
2023-04-08T23:22:11.890Z,17.25
2023-04-08T23:24:38.415Z,17.37
2023-04-08T23:27:04.958Z,17.22
2023-04-08T23:29:31.719Z,17.16
2023-04-08T23:31:58.475Z,17.22
2023-04-08T23:34:25.168Z,17.08
2023-04-08T23:36:51.876Z,17.19
2023-04-08T23:39:19.636Z,17.24
2023-04-08T23:41:46.310Z,17.14
2023-04-08T23:44:12.955Z,17.06
2023-04-08T23:46:39.650Z,17.18
2023-04-08T23:49:06.373Z,17.18
2023-04-08T23:51:33.074Z,17.16
2023-04-08T23:53:59.687Z,17.03
2023-04-08T23:56:26.303Z,16.90
2023-04-08T23:58:52.944Z,16.70
